createdAt,value
2022-09-16T00:01:31.644Z,94857.09
2022-09-16T00:03:58.188Z,94855.97
2022-09-16T00:06:27.483Z,94849.34
2022-09-16T00:08:59.428Z,94850.13
2022-09-16T00:11:25.984Z,94849.75
2022-09-16T00:13:52.572Z,94842.31
2022-09-16T00:16:25.086Z,94850.97
2022-09-16T00:18:56.384Z,94845.50
2022-09-16T00:21:23.383Z,94845.50
2022-09-16T00:23:50.006Z,94836.91
2022-09-16T00:26:16.868Z,94840.81
2022-09-16T00:28:43.993Z,94834.19
2022-09-16T00:31:10.701Z,94822.78
2022-09-16T00:33:37.397Z,94833.75
2022-09-16T00:36:14.015Z,94836.84
2022-09-16T00:38:41.885Z,94830.94
2022-09-16T00:41:10.798Z,94828.59
2022-09-16T00:44:26.937Z,94830.81
2022-09-16T00:46:54.998Z,94828.91
2022-09-16T00:49:27.653Z,94827.31
2022-09-16T00:51:59.506Z,94826.53
2022-09-16T00:54:26.987Z,94826.53
2022-09-16T00:56:56.050Z,94818.69
2022-09-16T00:59:59.397Z,94819.41
2022-09-16T01:02:27.479Z,94827.25
2022-09-16T01:04:53.950Z,94826.84
2022-09-16T01:07:39.253Z,94824.88
2022-09-16T01:10:06.503Z,94825.31
2022-09-16T01:12:34.894Z,94821.78
2022-09-16T01:15:02.805Z,94819.47
2022-09-16T01:17:47.120Z,94820.59
2022-09-16T01:20:42.686Z,94821.78
2022-09-16T01:23:17.825Z,94820.19
2022-09-16T01:26:19.000Z,94824.88
2022-09-16T01:28:57.424Z,94824.09
2022-09-16T01:31:50.019Z,94821.28
2022-09-16T01:34:45.645Z,94819.66
2022-09-16T01:37:34.715Z,94827.44
2022-09-16T01:40:06.111Z,94824.63
2022-09-16T01:42:51.642Z,94818.72
2022-09-16T01:45:26.920Z,94821.38
2022-09-16T01:48:12.621Z,94808.81
2022-09-16T01:50:48.284Z,94816.19
2022-09-16T01:53:37.188Z,94815.72
2022-09-16T01:56:16.570Z,94814.91
2022-09-16T01:58:59.230Z,94813.25
2022-09-16T02:01:33.857Z,94808.50
2022-09-16T02:04:06.376Z,94804.53
2022-09-16T02:06:34.760Z,94799.81
2022-09-16T02:09:15.476Z,94805.22
2022-09-16T02:11:46.816Z,94800.91
2022-09-16T02:14:22.076Z,94817.34
2022-09-16T02:16:58.232Z,94825.91
2022-09-16T02:19:57.850Z,94819.19
2022-09-16T02:22:39.434Z,94828.63
2022-09-16T02:25:08.905Z,94825.53
2022-09-16T02:27:38.389Z,94834.16
2022-09-16T02:30:08.534Z,94820.50
2022-09-16T02:32:39.808Z,94817.75
2022-09-16T02:35:09.789Z,94824.81
2022-09-16T02:37:59.597Z,94829.47
2022-09-16T02:40:35.397Z,94833.44
2022-09-16T02:43:02.991Z,94835.00
2022-09-16T02:45:46.556Z,94836.97
2022-09-16T02:48:21.932Z,94834.63
2022-09-16T02:50:52.391Z,94827.25
2022-09-16T02:53:52.472Z,94823.69
2022-09-16T02:56:29.379Z,94819.41
2022-09-16T02:58:55.922Z,94812.75
2022-09-16T03:01:24.086Z,94815.13
2022-09-16T03:03:54.267Z,94805.34
2022-09-16T03:06:23.616Z,94805.00
2022-09-16T03:08:51.483Z,94805.78
2022-09-16T03:11:36.140Z,94808.50
2022-09-16T03:14:11.550Z,94799.16
2022-09-16T03:16:48.098Z,94803.09
2022-09-16T03:19:32.934Z,94791.38
2022-09-16T03:22:20.944Z,94793.75
2022-09-16T03:24:52.809Z,94789.84
2022-09-16T03:27:29.737Z,94790.63
2022-09-16T03:30:04.222Z,94789.84
2022-09-16T03:32:54.780Z,94799.22
2022-09-16T03:35:34.032Z,94792.50
2022-09-16T03:38:02.321Z,94792.09
2022-09-16T03:40:32.545Z,94787.75
2022-09-16T03:42:59.172Z,94779.50
2022-09-16T03:45:25.899Z,94786.13
2022-09-16T03:47:53.631Z,94783.34
2022-09-16T03:50:21.271Z,94782.91
2022-09-16T03:52:47.887Z,94778.16
2022-09-16T03:55:14.436Z,94776.59
2022-09-16T03:57:40.957Z,94782.41
2022-09-16T04:00:08.225Z,94786.31
2022-09-16T04:02:40.788Z,94788.59
2022-09-16T04:05:08.075Z,94783.50
2022-09-16T04:07:34.779Z,94780.34
2022-09-16T04:10:01.668Z,94777.97
2022-09-16T04:12:28.752Z,94775.25
2022-09-16T04:14:55.286Z,94769.78
2022-09-16T04:17:21.906Z,94769.00
2022-09-16T04:19:48.371Z,94778.78
2022-09-16T04:22:17.641Z,94772.09
2022-09-16T04:24:44.219Z,94774.81
2022-09-16T04:27:10.820Z,94763.88
2022-09-16T04:29:37.264Z,94777.56
2022-09-16T04:32:03.958Z,94782.25
2022-09-16T04:34:30.459Z,94781.44
2022-09-16T04:36:56.922Z,94793.53
2022-09-16T04:39:23.432Z,94791.97
2022-09-16T04:41:49.916Z,94793.09
2022-09-16T04:44:16.451Z,94794.69
2022-09-16T04:46:43.026Z,94804.03
2022-09-16T04:49:09.535Z,94804.03
2022-09-16T04:51:36.132Z,94808.38
2022-09-16T04:54:02.703Z,94808.78
2022-09-16T04:56:31.919Z,94805.63
2022-09-16T04:59:00.846Z,94805.28
2022-09-16T05:01:30.022Z,94808.00
2022-09-16T05:04:00.221Z,94813.09
2022-09-16T05:06:32.066Z,94813.53
2022-09-16T05:08:59.253Z,94818.63
2022-09-16T05:11:28.094Z,94821.00
2022-09-16T05:13:55.622Z,94817.56
2022-09-16T05:16:23.406Z,94819.50
2022-09-16T05:18:53.744Z,94817.56
2022-09-16T05:21:21.952Z,94809.78
2022-09-16T05:23:49.164Z,94812.13
2022-09-16T05:26:19.311Z,94819.19
2022-09-16T05:28:46.574Z,94811.78
2022-09-16T05:31:18.589Z,94807.13
2022-09-16T05:33:47.974Z,94813.38
2022-09-16T05:36:17.175Z,94812.22
2022-09-16T05:38:59.091Z,94813.78
2022-09-16T05:41:30.968Z,94813.78
2022-09-16T05:44:01.126Z,94819.72
2022-09-16T05:46:28.864Z,94813.88
2022-09-16T05:48:56.309Z,94823.22
2022-09-16T05:51:24.172Z,94816.59
2022-09-16T05:53:51.686Z,94807.59
2022-09-16T05:56:23.728Z,94809.91
2022-09-16T05:58:52.311Z,94808.75
2022-09-16T06:01:21.272Z,94811.50
2022-09-16T06:03:50.072Z,94806.38
2022-09-16T06:06:24.188Z,94806.38
2022-09-16T06:08:52.318Z,94799.75
2022-09-16T06:11:19.731Z,94802.13
2022-09-16T06:13:46.426Z,94812.34
2022-09-16T06:16:13.526Z,94799.94
2022-09-16T06:18:40.484Z,94805.81
2022-09-16T06:21:09.680Z,94810.22
2022-09-16T06:23:37.373Z,94803.66
2022-09-16T06:26:06.889Z,94805.66
2022-09-16T06:28:33.433Z,94797.50
2022-09-16T06:31:13.151Z,94792.88
2022-09-16T06:33:40.637Z,94793.34
2022-09-16T06:36:15.594Z,94787.16
2022-09-16T06:38:42.349Z,94793.50
2022-09-16T06:41:10.886Z,94804.13
2022-09-16T06:43:38.061Z,94795.19
2022-09-16T06:46:09.539Z,94799.94
2022-09-16T06:48:36.369Z,94803.53
2022-09-16T06:51:05.408Z,94791.47
2022-09-16T06:53:33.035Z,94797.00
2022-09-16T06:56:08.058Z,94806.78
2022-09-16T06:58:36.102Z,94802.13
2022-09-16T07:01:09.564Z,94802.41
2022-09-16T07:03:41.991Z,94789.22
2022-09-16T07:06:09.670Z,94794.78
2022-09-16T07:08:37.217Z,94797.53
2022-09-16T07:11:06.091Z,94795.56
2022-09-16T07:13:32.997Z,94790.50
2022-09-16T07:16:19.054Z,94796.41
2022-09-16T07:18:45.989Z,94796.47
2022-09-16T07:21:16.001Z,94797.66
2022-09-16T07:23:44.146Z,94801.25
2022-09-16T07:26:16.130Z,94796.81
2022-09-16T07:28:44.504Z,94798.91
2022-09-16T07:31:13.457Z,94808.72
2022-09-16T07:33:45.434Z,94802.09
2022-09-16T07:36:15.222Z,94806.75
2022-09-16T07:38:41.968Z,94809.09
2022-09-16T07:41:14.081Z,94803.59
2022-09-16T07:43:42.223Z,94809.88
2022-09-16T07:46:09.470Z,94799.56
2022-09-16T07:48:36.538Z,94807.56
2022-09-16T07:51:16.164Z,94804.09
2022-09-16T07:53:43.603Z,94806.88
2022-09-16T07:56:18.562Z,94802.22
2022-09-16T07:58:46.332Z,94801.53
2022-09-16T08:01:14.603Z,94796.50
2022-09-16T08:03:42.653Z,94796.97
2022-09-16T08:06:12.231Z,94796.28
2022-09-16T08:08:39.131Z,94790.47
2022-09-16T08:11:06.332Z,94785.09
2022-09-16T08:13:33.945Z,94784.75
2022-09-16T08:16:09.079Z,94787.94
2022-09-16T08:18:35.730Z,94790.41
2022-09-16T08:21:07.307Z,94791.66
2022-09-16T08:23:38.294Z,94786.22
2022-09-16T08:26:05.870Z,94791.78
2022-09-16T08:28:40.131Z,94795.38
2022-09-16T08:31:20.020Z,94788.34
2022-09-16T08:33:47.573Z,94787.22
2022-09-16T08:36:20.379Z,94786.47
2022-09-16T08:38:49.000Z,94785.38
2022-09-16T08:41:33.365Z,94788.56
2022-09-16T08:44:30.812Z,94791.78
2022-09-16T08:47:03.750Z,94794.94
2022-09-16T08:49:40.081Z,94791.84
2022-09-16T08:52:18.659Z,94799.41
2022-09-16T08:54:50.245Z,94800.19
2022-09-16T08:57:24.337Z,94805.31
2022-09-16T09:00:04.821Z,94798.66
2022-09-16T09:02:55.614Z,94795.91
2022-09-16T09:05:47.311Z,94786.50
2022-09-16T09:08:26.284Z,94793.19
2022-09-16T09:10:59.459Z,94775.56
2022-09-16T09:13:59.763Z,94783.81
2022-09-16T09:17:04.275Z,94777.19
2022-09-16T09:19:57.206Z,94771.72
2022-09-16T09:22:35.291Z,94773.31
2022-09-16T09:25:07.692Z,94775.69
2022-09-16T09:27:50.222Z,94774.16
2022-09-16T09:30:25.457Z,94768.28
2022-09-16T09:33:01.016Z,94769.50
2022-09-16T09:35:47.150Z,94772.25
2022-09-16T09:38:28.694Z,94770.66
2022-09-16T09:41:10.970Z,94775.75
2022-09-16T09:43:47.164Z,94764.00
2022-09-16T09:46:33.095Z,94765.53
2022-09-16T09:49:14.934Z,94769.03
2022-09-16T09:51:48.548Z,94759.19
2022-09-16T09:54:28.305Z,94757.59
2022-09-16T09:57:00.871Z,94756.75
2022-09-16T09:59:36.977Z,94761.06
2022-09-16T10:02:03.755Z,94760.69
2022-09-16T10:04:37.663Z,94767.72
2022-09-16T10:07:05.462Z,94763.44
2022-09-16T10:09:32.812Z,94763.44
2022-09-16T10:11:59.426Z,94756.72
2022-09-16T10:14:34.263Z,94761.06
2022-09-16T10:17:14.522Z,94762.22
2022-09-16T10:19:59.459Z,94763.75
2022-09-16T10:22:30.320Z,94752.78
2022-09-16T10:25:05.364Z,94763.34
2022-09-16T10:27:35.266Z,94751.59
2022-09-16T10:30:13.199Z,94749.22
2022-09-16T10:32:58.128Z,94739.28
2022-09-16T10:35:27.629Z,94748.81
2022-09-16T10:38:03.565Z,94739.38
2022-09-16T10:40:31.224Z,94738.19
2022-09-16T10:43:03.635Z,94735.00
2022-09-16T10:45:34.168Z,94730.69
2022-09-16T10:48:07.392Z,94730.66
2022-09-16T10:50:34.332Z,94733.38
2022-09-16T10:53:00.816Z,94721.19
2022-09-16T10:55:30.214Z,94719.97
2022-09-16T10:58:18.212Z,94716.03
2022-09-16T11:00:58.153Z,94713.69
2022-09-16T11:03:24.643Z,94709.34
2022-09-16T11:06:00.230Z,94715.19
2022-09-16T11:08:36.760Z,94711.25
2022-09-16T11:11:11.165Z,94716.31
2022-09-16T11:14:17.695Z,94713.91
2022-09-16T11:17:15.251Z,94720.91
2022-09-16T11:19:55.260Z,94709.91
2022-09-16T11:22:42.777Z,94697.38
2022-09-16T11:25:30.211Z,94711.41
2022-09-16T11:28:08.435Z,94710.22
2022-09-16T11:30:47.563Z,94706.72
2022-09-16T11:33:49.668Z,94714.63
2022-09-16T11:36:32.944Z,94695.13
2022-09-16T11:39:28.354Z,94692.41
2022-09-16T11:42:34.387Z,94686.13
2022-09-16T11:45:03.923Z,94707.59
2022-09-16T11:48:02.555Z,94696.53
2022-09-16T11:50:38.602Z,94715.13
2022-09-16T11:53:22.162Z,94730.63
2022-09-16T11:56:15.383Z,94721.84
2022-09-16T11:58:48.686Z,94722.50
2022-09-16T12:01:39.802Z,94715.25
2022-09-16T12:04:43.710Z,94728.34
2022-09-16T12:07:17.455Z,94729.72
2022-09-16T12:09:54.333Z,94738.94
2022-09-16T12:12:29.427Z,94752.84
2022-09-16T12:15:05.907Z,94774.50
2022-09-16T12:17:36.814Z,94771.44
2022-09-16T12:20:13.781Z,94782.78
2022-09-16T12:22:45.852Z,94772.63
2022-09-16T12:25:17.394Z,94789.41
2022-09-16T12:27:51.959Z,94789.97
2022-09-16T12:30:21.600Z,94787.38
2022-09-16T12:33:05.855Z,94778.91
2022-09-16T12:35:39.101Z,94776.00
2022-09-16T12:38:16.198Z,94773.03
2022-09-16T12:41:10.423Z,94774.03
2022-09-16T12:44:30.358Z,94778.66
2022-09-16T12:47:41.889Z,94820.56
2022-09-16T12:50:38.637Z,94792.78
2022-09-16T12:53:27.053Z,94789.25
2022-09-16T12:56:08.324Z,94797.34
2022-09-16T12:58:34.818Z,94801.81
2022-09-16T13:01:16.313Z,94807.19
2022-09-16T13:03:48.443Z,94832.81
2022-09-16T13:06:32.298Z,94840.94
2022-09-16T13:09:13.875Z,94816.44
2022-09-16T13:14:31.687Z,94823.16
2022-09-16T13:17:00.824Z,94817.69
2022-09-16T13:19:36.735Z,94829.66
2022-09-16T13:22:24.826Z,94819.88
2022-09-16T13:24:58.014Z,94826.66
2022-09-16T13:27:36.077Z,94818.94
2022-09-16T13:30:08.643Z,94817.97
2022-09-16T13:32:38.102Z,94830.81
2022-09-16T13:35:18.400Z,94811.97
2022-09-16T13:37:46.813Z,94823.09
2022-09-16T13:40:19.084Z,94819.84
2022-09-16T13:42:45.617Z,94799.31
2022-09-16T13:45:31.068Z,94805.47
2022-09-16T13:47:57.836Z,94810.22
2022-09-16T13:50:26.329Z,94807.84
2022-09-16T13:52:53.231Z,94810.59
2022-09-16T13:55:23.759Z,94816.94
2022-09-16T13:58:10.459Z,94815.41
2022-09-16T14:00:47.139Z,94822.47
2022-09-16T14:03:30.564Z,94830.72
2022-09-16T14:06:00.194Z,94842.53
2022-09-16T14:08:35.672Z,94844.91
2022-09-16T14:11:14.334Z,94851.50
2022-09-16T14:13:48.795Z,94849.66
2022-09-16T14:16:24.616Z,94850.81
2022-09-16T14:19:23.650Z,94864.03
2022-09-16T14:22:16.777Z,94871.03
2022-09-16T14:24:45.760Z,94872.63
2022-09-16T14:27:23.077Z,94887.00
2022-09-16T14:30:01.758Z,94886.56
2022-09-16T14:32:31.727Z,94902.94
2022-09-16T14:35:02.780Z,94902.94
2022-09-16T14:37:31.460Z,94904.78
2022-09-16T14:40:11.442Z,94901.97
2022-09-16T14:42:39.902Z,94896.84
2022-09-16T14:45:06.718Z,94893.34
2022-09-16T14:47:51.207Z,94887.44
2022-09-16T14:50:49.326Z,94881.19
2022-09-16T14:53:36.513Z,94876.84
2022-09-16T14:56:05.367Z,94866.84
2022-09-16T14:58:33.817Z,94875.88
2022-09-16T15:01:09.041Z,94877.56
2022-09-16T15:04:11.506Z,94878.44
2022-09-16T15:06:48.398Z,94879.78
2022-09-16T15:09:34.221Z,94877.53
2022-09-16T15:12:01.714Z,94881.16
2022-09-16T15:14:28.695Z,94889.78
2022-09-16T15:17:01.383Z,94881.25
2022-09-16T15:19:35.306Z,94884.78
2022-09-16T15:22:02.983Z,94885.56
2022-09-16T15:24:33.267Z,94884.78
2022-09-16T15:27:01.236Z,94891.81
2022-09-16T15:29:33.051Z,94883.97
2022-09-16T15:32:22.191Z,94883.91
2022-09-16T15:34:48.823Z,94878.88
2022-09-16T15:37:32.791Z,94881.94
2022-09-16T15:40:22.194Z,94878.50
2022-09-16T15:43:01.149Z,94876.66
2022-09-16T15:45:28.413Z,94870.56
2022-09-16T15:48:07.034Z,94877.28
2022-09-16T15:50:53.440Z,94882.03
2022-09-16T15:53:32.196Z,94874.63
2022-09-16T15:56:03.876Z,94881.31
2022-09-16T15:58:32.996Z,94878.59
2022-09-16T16:01:03.053Z,94873.47
2022-09-16T16:03:37.505Z,94876.56
2022-09-16T16:06:04.189Z,94871.47
2022-09-16T16:08:52.320Z,94876.91
2022-09-16T16:11:21.192Z,94875.03
2022-09-16T16:13:48.203Z,94866.56
2022-09-16T16:16:15.944Z,94879.50
2022-09-16T16:18:44.384Z,94880.75
2022-09-16T16:21:16.457Z,94885.94
2022-09-16T16:23:43.546Z,94887.59
2022-09-16T16:26:11.501Z,94889.63
2022-09-16T16:28:38.077Z,94877.97
2022-09-16T16:31:16.044Z,94874.19
2022-09-16T16:33:46.618Z,94873.66
2022-09-16T16:36:18.066Z,94870.41
2022-09-16T16:38:44.756Z,94877.53
2022-09-16T16:41:11.535Z,94872.84
2022-09-16T16:43:38.718Z,94871.00
2022-09-16T16:46:05.465Z,94863.94
2022-09-16T16:48:31.988Z,94865.16
2022-09-16T16:51:07.908Z,94868.69
2022-09-16T16:53:34.987Z,94873.38
2022-09-16T16:56:04.381Z,94873.28
2022-09-16T16:58:31.965Z,94876.00
2022-09-16T17:01:19.344Z,94874.78
2022-09-16T17:03:47.560Z,94866.25
2022-09-16T17:06:14.002Z,94868.38
2022-09-16T17:08:40.569Z,94856.03
2022-09-16T17:11:08.094Z,94861.91
2022-09-16T17:13:34.573Z,94862.97
2022-09-16T17:16:01.196Z,94872.34
2022-09-16T17:18:27.783Z,94866.44
2022-09-16T17:20:54.295Z,94859.28
2022-09-16T17:23:20.841Z,94854.09
2022-09-16T17:25:50.243Z,94856.34
2022-09-16T17:28:17.261Z,94855.03
2022-09-16T17:30:44.586Z,94860.31
2022-09-16T17:33:11.180Z,94863.69
2022-09-16T17:35:37.649Z,94872.78
2022-09-16T17:38:06.954Z,94870.69
2022-09-16T17:40:34.270Z,94867.44
2022-09-16T17:43:00.890Z,94866.47
2022-09-16T17:45:27.385Z,94867.09
2022-09-16T17:47:55.531Z,94869.28
2022-09-16T17:50:23.131Z,94871.69
2022-09-16T17:52:49.865Z,94863.13
2022-09-16T17:55:16.451Z,94865.44
2022-09-16T17:57:43.160Z,94858.66
2022-09-16T18:00:10.168Z,94869.47
2022-09-16T18:02:39.693Z,94865.88
2022-09-16T18:05:06.773Z,94867.69
2022-09-16T18:07:33.357Z,94863.75
2022-09-16T18:09:59.848Z,94872.72
2022-09-16T18:12:26.352Z,94864.09
2022-09-16T18:14:52.854Z,94868.41
2022-09-16T18:17:19.296Z,94861.03
2022-09-16T18:19:45.818Z,94863.41
2022-09-16T18:22:12.345Z,94859.88
2022-09-16T18:24:38.841Z,94862.25
2022-09-16T18:27:05.385Z,94870.88
2022-09-16T18:29:31.907Z,94862.69
2022-09-16T18:31:58.427Z,94875.53
2022-09-16T18:34:24.926Z,94877.13
2022-09-16T18:36:51.411Z,94890.41
2022-09-16T18:39:18.290Z,94880.63
2022-09-16T18:41:46.007Z,94878.72
2022-09-16T18:44:22.371Z,94886.91
2022-09-16T18:46:49.580Z,94887.34
2022-09-16T18:49:17.701Z,94886.56
2022-09-16T18:51:50.832Z,94902.91
2022-09-16T18:54:21.120Z,94901.31
2022-09-16T18:56:47.607Z,94904.41
2022-09-16T18:59:21.405Z,94895.09
2022-09-16T19:01:49.484Z,94891.19
2022-09-16T19:04:19.745Z,94886.56
2022-09-16T19:06:48.484Z,94881.09
2022-09-16T19:09:17.622Z,94899.84
2022-09-16T19:11:44.657Z,94890.06
2022-09-16T19:14:12.395Z,94878.81
2022-09-16T19:16:40.244Z,94881.53
2022-09-16T19:19:08.319Z,94883.81
2022-09-16T19:21:34.816Z,94888.19
2022-09-16T19:24:04.121Z,94899.66
2022-09-16T19:26:33.504Z,94891.47
2022-09-16T19:29:00.348Z,94886.72
2022-09-16T19:31:28.646Z,94885.13
2022-09-16T19:33:55.753Z,94886.59
2022-09-16T19:36:25.296Z,94885.00
2022-09-16T19:38:52.665Z,94880.69
2022-09-16T19:41:20.859Z,94888.41
2022-09-16T19:43:47.259Z,94887.44
2022-09-16T19:46:15.973Z,94885.25
2022-09-16T19:48:45.638Z,94879.81
2022-09-16T19:51:14.111Z,94895.38
2022-09-16T19:53:42.133Z,94894.13
2022-09-16T19:56:10.074Z,94890.34
2022-09-16T19:58:37.559Z,94882.72
2022-09-16T20:01:08.451Z,94890.50
2022-09-16T20:03:37.007Z,94895.19
2022-09-16T20:06:10.367Z,94888.94
2022-09-16T20:08:38.549Z,94881.91
2022-09-16T20:11:06.167Z,94891.03
2022-09-16T20:13:33.245Z,94887.34
2022-09-16T20:16:08.309Z,94879.59
2022-09-16T20:18:36.625Z,94883.13
2022-09-16T20:21:09.412Z,94882.72
2022-09-16T20:23:37.229Z,94881.53
2022-09-16T20:26:06.808Z,94880.31
2022-09-16T20:28:36.217Z,94884.97
2022-09-16T20:31:03.663Z,94890.78
2022-09-16T20:33:33.646Z,94890.34
2022-09-16T20:36:08.310Z,94887.97
2022-09-16T20:38:34.912Z,94886.00
2022-09-16T20:41:06.357Z,94888.66
2022-09-16T20:43:33.185Z,94891.72
2022-09-16T20:46:09.717Z,94892.41
2022-09-16T20:48:36.270Z,94883.47
2022-09-16T20:51:08.264Z,94882.22
2022-09-16T20:53:36.120Z,94891.53
2022-09-16T20:56:14.899Z,94891.06
2022-09-16T20:58:43.045Z,94894.97
2022-09-16T21:01:15.681Z,94890.63
2022-09-16T21:03:43.612Z,94887.91
2022-09-16T21:06:12.650Z,94898.03
2022-09-16T21:08:39.410Z,94896.88
2022-09-16T21:11:07.124Z,94890.63
2022-09-16T21:13:33.997Z,94899.94
2022-09-16T21:16:00.951Z,94896.09
2022-09-16T21:18:28.725Z,94894.50
2022-09-16T21:21:04.136Z,94901.88
2022-09-16T21:23:31.858Z,94897.22
2022-09-16T21:26:06.283Z,94892.94
2022-09-16T21:28:35.601Z,94899.94
2022-09-16T21:31:04.044Z,94903.94
2022-09-16T21:33:32.151Z,94894.97
2022-09-16T21:35:58.949Z,94902.16
2022-09-16T21:38:27.997Z,94902.44
2022-09-16T21:40:59.460Z,94897.00
2022-09-16T21:43:28.088Z,94898.13
2022-09-16T21:45:55.432Z,94892.31
2022-09-16T21:48:22.130Z,94898.47
2022-09-16T21:50:49.164Z,94889.94
2022-09-16T21:53:15.689Z,94888.34
2022-09-16T21:55:42.248Z,94891.06
2022-09-16T21:58:09.239Z,94893.81
2022-09-16T22:00:36.213Z,94896.09
2022-09-16T22:03:02.830Z,94904.72
2022-09-16T22:05:30.375Z,94899.59
2022-09-16T22:07:56.879Z,94893.63
2022-09-16T22:10:23.349Z,94894.75
2022-09-16T22:12:49.891Z,94895.09
2022-09-16T22:15:16.445Z,94895.00
2022-09-16T22:17:43.512Z,94900.03
2022-09-16T22:20:11.168Z,94912.84
2022-09-16T22:22:39.133Z,94911.13
2022-09-16T22:25:05.973Z,94910.25
2022-09-16T22:27:32.533Z,94908.66
2022-09-16T22:29:59.011Z,94901.63
2022-09-16T22:32:27.392Z,94911.63
2022-09-16T22:34:53.953Z,94901.44
2022-09-16T22:37:20.421Z,94907.56
2022-09-16T22:39:46.973Z,94895.75
2022-09-16T22:42:13.447Z,94901.91
2022-09-16T22:44:40.055Z,94905.34
2022-09-16T22:47:06.560Z,94903.28
2022-09-16T22:49:33.061Z,94900.09
2022-09-16T22:51:59.557Z,94902.81
2022-09-16T22:54:26.120Z,94898.53
2022-09-16T22:56:52.634Z,94900.44
2022-09-16T22:59:20.626Z,94896.94
2022-09-16T23:01:48.079Z,94898.06
2022-09-16T23:04:14.894Z,94891.50
2022-09-16T23:06:41.479Z,94896.94
2022-09-16T23:09:09.071Z,94895.81
2022-09-16T23:11:36.487Z,94893.09
2022-09-16T23:14:03.427Z,94899.75
2022-09-16T23:16:35.891Z,94890.81
2022-09-16T23:19:04.876Z,94889.69
2022-09-16T23:21:31.617Z,94895.13
2022-09-16T23:24:00.814Z,94899.41
2022-09-16T23:26:31.558Z,94901.78
2022-09-16T23:28:59.918Z,94908.06
2022-09-16T23:31:29.432Z,94897.16
2022-09-16T23:33:56.505Z,94893.28
2022-09-16T23:36:24.256Z,94889.44
2022-09-16T23:38:50.747Z,94883.53
2022-09-16T23:41:21.921Z,94892.50
2022-09-16T23:43:49.736Z,94887.41
2022-09-16T23:46:19.128Z,94888.53
2022-09-16T23:48:45.960Z,94893.53
2022-09-16T23:51:13.550Z,94888.41
2022-09-16T23:53:41.512Z,94893.78
2022-09-16T23:56:13.449Z,94890.56
2022-09-16T23:58:41.016Z,94891.41
